sensor_id;sensor_type;location;lat;lon;timestamp;temperature;humidity
27567;DHT22;15006;48.584;9.186;2023-03-14T00:00:31;6.20;99.90
27567;DHT22;15006;48.584;9.186;2023-03-14T00:02:57;6.30;99.90
27567;DHT22;15006;48.584;9.186;2023-03-14T00:05:26;6.30;99.90
27567;DHT22;15006;48.584;9.186;2023-03-14T00:08:00;6.30;99.90
27567;DHT22;15006;48.584;9.186;2023-03-14T00:10:28;6.40;99.90
27567;DHT22;15006;48.584;9.186;2023-03-14T00:12:56;6.30;99.90
27567;DHT22;15006;48.584;9.186;2023-03-14T00:15:24;6.30;99.90
27567;DHT22;15006;48.584;9.186;2023-03-14T00:17:53;6.40;99.90
27567;DHT22;15006;48.584;9.186;2023-03-14T00:20:23;6.40;99.90
27567;DHT22;15006;48.584;9.186;2023-03-14T00:22:56;6.40;99.90
27567;DHT22;15006;48.584;9.186;2023-03-14T00:25:31;6.40;99.90
27567;DHT22;15006;48.584;9.186;2023-03-14T00:28:00;6.40;99.90
27567;DHT22;15006;48.584;9.186;2023-03-14T00:30:29;6.40;99.90
27567;DHT22;15006;48.584;9.186;2023-03-14T00:33:00;6.40;99.90
27567;DHT22;15006;48.584;9.186;2023-03-14T00:35:29;6.40;99.90
27567;DHT22;15006;48.584;9.186;2023-03-14T00:37:57;6.40;99.90
27567;DHT22;15006;48.584;9.186;2023-03-14T00:40:28;6.40;99.90
27567;DHT22;15006;48.584;9.186;2023-03-14T00:42:57;6.40;99.90
27567;DHT22;15006;48.584;9.186;2023-03-14T00:45:27;6.40;99.90
27567;DHT22;15006;48.584;9.186;2023-03-14T00:47:54;6.40;99.90
27567;DHT22;15006;48.584;9.186;2023-03-14T00:50:22;6.30;99.90
27567;DHT22;15006;48.584;9.186;2023-03-14T00:52:49;6.30;99.90
27567;DHT22;15006;48.584;9.186;2023-03-14T00:55:17;6.30;99.90
27567;DHT22;15006;48.584;9.186;2023-03-14T00:57:48;6.40;99.90
27567;DHT22;15006;48.584;9.186;2023-03-14T01:00:16;6.30;99.90
27567;DHT22;15006;48.584;9.186;2023-03-14T01:02:44;6.30;99.90
27567;DHT22;15006;48.584;9.186;2023-03-14T01:05:22;6.30;99.90
27567;DHT22;15006;48.584;9.186;2023-03-14T01:07:53;6.30;99.90
27567;DHT22;15006;48.584;9.186;2023-03-14T01:10:29;6.30;99.90
27567;DHT22;15006;48.584;9.186;2023-03-14T01:12:55;6.30;99.90
27567;DHT22;15006;48.584;9.186;2023-03-14T01:15:21;6.30;99.90
27567;DHT22;15006;48.584;9.186;2023-03-14T01:17:51;6.30;99.90
27567;DHT22;15006;48.584;9.186;2023-03-14T01:20:18;6.30;99.90
27567;DHT22;15006;48.584;9.186;2023-03-14T01:22:44;6.30;99.90
27567;DHT22;15006;48.584;9.186;2023-03-14T01:25:14;6.30;99.90
27567;DHT22;15006;48.584;9.186;2023-03-14T01:27:42;6.30;99.90
27567;DHT22;15006;48.584;9.186;2023-03-14T01:30:11;6.30;99.90
27567;DHT22;15006;48.584;9.186;2023-03-14T01:32:40;6.30;99.90
27567;DHT22;15006;48.584;9.186;2023-03-14T01:35:06;6.30;99.90
27567;DHT22;15006;48.584;9.186;2023-03-14T01:37:35;6.30;99.90
27567;DHT22;15006;48.584;9.186;2023-03-14T01:40:02;6.30;99.90
27567;DHT22;15006;48.584;9.186;2023-03-14T01:42:54;6.30;99.90
27567;DHT22;15006;48.584;9.186;2023-03-14T01:48:52;6.30;99.90
27567;DHT22;15006;48.584;9.186;2023-03-14T01:56:39;6.20;99.90
27567;DHT22;15006;48.584;9.186;2023-03-14T01:59:08;6.20;99.90
27567;DHT22;15006;48.584;9.186;2023-03-14T02:01:35;6.20;99.90
27567;DHT22;15006;48.584;9.186;2023-03-14T02:04:04;6.20;99.90
27567;DHT22;15006;48.584;9.186;2023-03-14T02:06:42;6.20;99.90
27567;DHT22;15006;48.584;9.186;2023-03-14T02:09:17;6.10;99.90
27567;DHT22;15006;48.584;9.186;2023-03-14T02:11:47;6.10;99.90
27567;DHT22;15006;48.584;9.186;2023-03-14T02:14:34;6.20;99.90
27567;DHT22;15006;48.584;9.186;2023-03-14T02:17:11;6.20;99.90
27567;DHT22;15006;48.584;9.186;2023-03-14T02:22:50;6.20;99.90
27567;DHT22;15006;48.584;9.186;2023-03-14T02:25:46;6.20;99.90
27567;DHT22;15006;48.584;9.186;2023-03-14T02:28:21;6.20;99.90
27567;DHT22;15006;48.584;9.186;2023-03-14T02:30:56;6.20;99.90
27567;DHT22;15006;48.584;9.186;2023-03-14T02:33:32;6.20;99.90
27567;DHT22;15006;48.584;9.186;2023-03-14T02:36:11;6.20;99.90
27567;DHT22;15006;48.584;9.186;2023-03-14T02:38:57;6.20;99.90
27567;DHT22;15006;48.584;9.186;2023-03-14T02:41:33;6.20;99.90
27567;DHT22;15006;48.584;9.186;2023-03-14T02:44:00;6.20;99.90
27567;DHT22;15006;48.584;9.186;2023-03-14T02:46:27;6.20;99.90
27567;DHT22;15006;48.584;9.186;2023-03-14T02:48:57;6.20;99.90
27567;DHT22;15006;48.584;9.186;2023-03-14T02:51:28;6.20;99.90
27567;DHT22;15006;48.584;9.186;2023-03-14T02:53:54;6.20;99.90
27567;DHT22;15006;48.584;9.186;2023-03-14T02:56:30;6.20;99.90
27567;DHT22;15006;48.584;9.186;2023-03-14T02:59:03;6.20;99.90
27567;DHT22;15006;48.584;9.186;2023-03-14T03:01:30;6.20;99.90
27567;DHT22;15006;48.584;9.186;2023-03-14T03:03:57;6.20;99.90
27567;DHT22;15006;48.584;9.186;2023-03-14T03:06:33;6.20;99.90
27567;DHT22;15006;48.584;9.186;2023-03-14T03:09:01;6.20;99.90
27567;DHT22;15006;48.584;9.186;2023-03-14T03:11:27;6.20;99.90
27567;DHT22;15006;48.584;9.186;2023-03-14T03:13:53;6.20;99.90
27567;DHT22;15006;48.584;9.186;2023-03-14T03:16:20;6.10;99.90
27567;DHT22;15006;48.584;9.186;2023-03-14T03:18:46;6.10;99.90
27567;DHT22;15006;48.584;9.186;2023-03-14T03:21:12;6.10;99.90
27567;DHT22;15006;48.584;9.186;2023-03-14T03:23:38;6.10;99.90
27567;DHT22;15006;48.584;9.186;2023-03-14T03:26:04;6.10;99.90
27567;DHT22;15006;48.584;9.186;2023-03-14T03:28:30;6.00;99.90
27567;DHT22;15006;48.584;9.186;2023-03-14T03:30:57;6.00;99.90
27567;DHT22;15006;48.584;9.186;2023-03-14T03:33:24;6.00;99.90
27567;DHT22;15006;48.584;9.186;2023-03-14T03:35:50;6.00;99.90
27567;DHT22;15006;48.584;9.186;2023-03-14T03:38:17;6.00;99.90
27567;DHT22;15006;48.584;9.186;2023-03-14T03:40:45;6.00;99.90
27567;DHT22;15006;48.584;9.186;2023-03-14T03:43:11;6.00;99.90
27567;DHT22;15006;48.584;9.186;2023-03-14T03:45:37;5.90;99.90
27567;DHT22;15006;48.584;9.186;2023-03-14T03:48:04;6.00;99.90
27567;DHT22;15006;48.584;9.186;2023-03-14T03:50:32;5.90;99.90
27567;DHT22;15006;48.584;9.186;2023-03-14T03:52:59;5.90;99.90
27567;DHT22;15006;48.584;9.186;2023-03-14T03:55:26;5.90;99.90
27567;DHT22;15006;48.584;9.186;2023-03-14T03:57:53;5.90;99.90
27567;DHT22;15006;48.584;9.186;2023-03-14T04:00:20;5.90;99.90
27567;DHT22;15006;48.584;9.186;2023-03-14T04:02:48;5.90;99.90
27567;DHT22;15006;48.584;9.186;2023-03-14T04:05:15;5.80;99.90
27567;DHT22;15006;48.584;9.186;2023-03-14T04:07:41;5.80;99.90
27567;DHT22;15006;48.584;9.186;2023-03-14T04:10:07;5.80;99.90
27567;DHT22;15006;48.584;9.186;2023-03-14T04:12:34;5.80;99.90
27567;DHT22;15006;48.584;9.186;2023-03-14T04:15:00;5.80;99.90
27567;DHT22;15006;48.584;9.186;2023-03-14T04:17:26;5.80;99.90
27567;DHT22;15006;48.584;9.186;2023-03-14T04:19:52;5.70;99.90
27567;DHT22;15006;48.584;9.186;2023-03-14T04:22:20;5.80;99.90
27567;DHT22;15006;48.584;9.186;2023-03-14T04:24:46;5.70;99.90
27567;DHT22;15006;48.584;9.186;2023-03-14T04:27:12;5.70;99.90
27567;DHT22;15006;48.584;9.186;2023-03-14T04:29:41;5.70;99.90
27567;DHT22;15006;48.584;9.186;2023-03-14T04:32:08;5.70;99.90
27567;DHT22;15006;48.584;9.186;2023-03-14T04:34:34;5.70;99.90
27567;DHT22;15006;48.584;9.186;2023-03-14T04:37:00;5.70;99.90
27567;DHT22;15006;48.584;9.186;2023-03-14T04:39:27;5.60;99.90
27567;DHT22;15006;48.584;9.186;2023-03-14T04:41:53;5.60;99.90
27567;DHT22;15006;48.584;9.186;2023-03-14T04:44:19;5.60;99.90
27567;DHT22;15006;48.584;9.186;2023-03-14T04:46:46;5.60;99.90
27567;DHT22;15006;48.584;9.186;2023-03-14T04:49:16;5.60;99.90
27567;DHT22;15006;48.584;9.186;2023-03-14T04:51:42;5.60;99.90
27567;DHT22;15006;48.584;9.186;2023-03-14T04:54:08;5.50;99.90
27567;DHT22;15006;48.584;9.186;2023-03-14T04:56:34;5.50;99.90
27567;DHT22;15006;48.584;9.186;2023-03-14T04:59:03;5.50;99.90
27567;DHT22;15006;48.584;9.186;2023-03-14T05:01:30;5.50;99.90
27567;DHT22;15006;48.584;9.186;2023-03-14T05:03:56;5.50;99.90
27567;DHT22;15006;48.584;9.186;2023-03-14T05:06:22;5.50;99.90
27567;DHT22;15006;48.584;9.186;2023-03-14T05:08:48;5.50;99.90
27567;DHT22;15006;48.584;9.186;2023-03-14T05:11:14;5.50;99.90
27567;DHT22;15006;48.584;9.186;2023-03-14T05:13:40;5.50;99.90
27567;DHT22;15006;48.584;9.186;2023-03-14T05:16:08;5.50;99.90
27567;DHT22;15006;48.584;9.186;2023-03-14T05:18:36;5.50;99.90
27567;DHT22;15006;48.584;9.186;2023-03-14T05:21:02;5.50;99.90
27567;DHT22;15006;48.584;9.186;2023-03-14T05:23:29;5.40;99.90
27567;DHT22;15006;48.584;9.186;2023-03-14T05:25:55;5.50;99.90
27567;DHT22;15006;48.584;9.186;2023-03-14T05:28:21;5.40;99.90
27567;DHT22;15006;48.584;9.186;2023-03-14T05:30:47;5.50;99.90
27567;DHT22;15006;48.584;9.186;2023-03-14T05:33:14;5.40;99.90
27567;DHT22;15006;48.584;9.186;2023-03-14T05:35:40;5.40;99.90
27567;DHT22;15006;48.584;9.186;2023-03-14T05:38:07;5.40;99.90
27567;DHT22;15006;48.584;9.186;2023-03-14T05:40:34;5.50;99.90
27567;DHT22;15006;48.584;9.186;2023-03-14T05:43:00;5.50;99.90
27567;DHT22;15006;48.584;9.186;2023-03-14T05:45:26;5.50;99.90
27567;DHT22;15006;48.584;9.186;2023-03-14T05:47:52;5.40;99.90
27567;DHT22;15006;48.584;9.186;2023-03-14T05:50:18;5.50;99.90
27567;DHT22;15006;48.584;9.186;2023-03-14T05:52:44;5.50;99.90
27567;DHT22;15006;48.584;9.186;2023-03-14T05:55:10;5.50;99.90
27567;DHT22;15006;48.584;9.186;2023-03-14T05:57:36;5.50;99.90
27567;DHT22;15006;48.584;9.186;2023-03-14T06:00:02;5.50;99.90
27567;DHT22;15006;48.584;9.186;2023-03-14T06:02:29;5.50;99.50
27567;DHT22;15006;48.584;9.186;2023-03-14T06:04:55;5.50;99.90
27567;DHT22;15006;48.584;9.186;2023-03-14T06:07:21;5.50;99.00
27567;DHT22;15006;48.584;9.186;2023-03-14T06:09:47;5.50;99.70
27567;DHT22;15006;48.584;9.186;2023-03-14T06:12:13;5.50;99.80
27567;DHT22;15006;48.584;9.186;2023-03-14T06:14:39;5.50;99.70
27567;DHT22;15006;48.584;9.186;2023-03-14T06:17:05;5.50;99.80
27567;DHT22;15006;48.584;9.186;2023-03-14T06:19:31;5.50;99.90
27567;DHT22;15006;48.584;9.186;2023-03-14T06:21:57;5.50;99.30
27567;DHT22;15006;48.584;9.186;2023-03-14T06:24:23;5.50;99.90
27567;DHT22;15006;48.584;9.186;2023-03-14T06:26:49;5.50;99.90
27567;DHT22;15006;48.584;9.186;2023-03-14T06:29:15;5.50;99.90
27567;DHT22;15006;48.584;9.186;2023-03-14T06:31:41;5.50;99.90
27567;DHT22;15006;48.584;9.186;2023-03-14T06:34:06;5.50;99.90
27567;DHT22;15006;48.584;9.186;2023-03-14T06:36:32;5.50;99.90
27567;DHT22;15006;48.584;9.186;2023-03-14T06:38:58;5.50;99.90
27567;DHT22;15006;48.584;9.186;2023-03-14T06:41:24;5.50;99.90
27567;DHT22;15006;48.584;9.186;2023-03-14T06:43:52;5.50;99.90
27567;DHT22;15006;48.584;9.186;2023-03-14T06:46:18;5.50;99.90
27567;DHT22;15006;48.584;9.186;2023-03-14T06:48:44;5.50;99.90
27567;DHT22;15006;48.584;9.186;2023-03-14T06:51:10;5.50;99.90
27567;DHT22;15006;48.584;9.186;2023-03-14T06:53:36;5.60;99.90
27567;DHT22;15006;48.584;9.186;2023-03-14T06:56:02;5.60;99.90
27567;DHT22;15006;48.584;9.186;2023-03-14T06:58:28;5.60;99.90
27567;DHT22;15006;48.584;9.186;2023-03-14T07:00:54;5.60;99.90
27567;DHT22;15006;48.584;9.186;2023-03-14T07:03:20;5.70;99.90
27567;DHT22;15006;48.584;9.186;2023-03-14T07:05:46;5.70;99.90
27567;DHT22;15006;48.584;9.186;2023-03-14T07:08:12;5.70;99.90
27567;DHT22;15006;48.584;9.186;2023-03-14T07:10:38;5.80;99.90
27567;DHT22;15006;48.584;9.186;2023-03-14T07:13:04;5.80;99.90
27567;DHT22;15006;48.584;9.186;2023-03-14T07:15:30;5.90;99.90
27567;DHT22;15006;48.584;9.186;2023-03-14T07:17:56;5.90;99.90
27567;DHT22;15006;48.584;9.186;2023-03-14T07:20:22;6.00;99.90
27567;DHT22;15006;48.584;9.186;2023-03-14T07:22:49;6.00;99.90
27567;DHT22;15006;48.584;9.186;2023-03-14T07:25:16;6.10;99.90
27567;DHT22;15006;48.584;9.186;2023-03-14T07:27:46;6.20;99.90
27567;DHT22;15006;48.584;9.186;2023-03-14T07:30:13;6.30;99.90
27567;DHT22;15006;48.584;9.186;2023-03-14T07:32:39;6.30;96.50
27567;DHT22;15006;48.584;9.186;2023-03-14T07:35:06;6.40;99.90
27567;DHT22;15006;48.584;9.186;2023-03-14T07:37:32;6.40;99.90
27567;DHT22;15006;48.584;9.186;2023-03-14T07:39:58;6.50;99.90
27567;DHT22;15006;48.584;9.186;2023-03-14T07:43:08;6.50;99.90
27567;DHT22;15006;48.584;9.186;2023-03-14T07:46:19;6.60;99.90
27567;DHT22;15006;48.584;9.186;2023-03-14T07:49:30;6.70;99.90
27567;DHT22;15006;48.584;9.186;2023-03-14T07:52:42;6.80;99.90
27567;DHT22;15006;48.584;9.186;2023-03-14T07:55:54;6.90;99.90
27567;DHT22;15006;48.584;9.186;2023-03-14T07:59:05;7.00;99.40
27567;DHT22;15006;48.584;9.186;2023-03-14T08:01:31;7.10;99.20
27567;DHT22;15006;48.584;9.186;2023-03-14T08:03:57;7.10;98.10
27567;DHT22;15006;48.584;9.186;2023-03-14T08:06:41;7.20;99.50
27567;DHT22;15006;48.584;9.186;2023-03-14T08:09:26;7.30;98.20
27567;DHT22;15006;48.584;9.186;2023-03-14T08:12:12;7.40;98.50
27567;DHT22;15006;48.584;9.186;2023-03-14T08:14:58;7.40;98.10
27567;DHT22;15006;48.584;9.186;2023-03-14T08:17:25;7.50;95.00
27567;DHT22;15006;48.584;9.186;2023-03-14T08:19:51;7.60;95.90
27567;DHT22;15006;48.584;9.186;2023-03-14T08:22:17;7.60;95.30
27567;DHT22;15006;48.584;9.186;2023-03-14T08:24:43;7.60;96.10
27567;DHT22;15006;48.584;9.186;2023-03-14T08:27:09;7.60;96.00
27567;DHT22;15006;48.584;9.186;2023-03-14T08:29:35;7.70;95.20
27567;DHT22;15006;48.584;9.186;2023-03-14T08:32:01;7.60;95.40
27567;DHT22;15006;48.584;9.186;2023-03-14T08:34:27;7.70;95.20
27567;DHT22;15006;48.584;9.186;2023-03-14T08:36:53;7.70;94.90
27567;DHT22;15006;48.584;9.186;2023-03-14T08:39:21;7.80;95.10
27567;DHT22;15006;48.584;9.186;2023-03-14T08:41:49;7.80;95.40
27567;DHT22;15006;48.584;9.186;2023-03-14T08:44:15;7.90;92.80
27567;DHT22;15006;48.584;9.186;2023-03-14T08:46:41;7.90;94.80
27567;DHT22;15006;48.584;9.186;2023-03-14T08:49:07;8.00;94.80
27567;DHT22;15006;48.584;9.186;2023-03-14T08:51:33;8.00;94.00
27567;DHT22;15006;48.584;9.186;2023-03-14T08:53:59;8.10;93.40
27567;DHT22;15006;48.584;9.186;2023-03-14T08:56:25;8.20;93.80
27567;DHT22;15006;48.584;9.186;2023-03-14T08:58:51;8.20;92.90
27567;DHT22;15006;48.584;9.186;2023-03-14T09:01:17;8.30;91.60
27567;DHT22;15006;48.584;9.186;2023-03-14T09:03:44;8.50;92.90
27567;DHT22;15006;48.584;9.186;2023-03-14T09:06:11;8.60;91.30
27567;DHT22;15006;48.584;9.186;2023-03-14T09:08:37;8.80;92.00
27567;DHT22;15006;48.584;9.186;2023-03-14T09:11:05;8.90;90.90
27567;DHT22;15006;48.584;9.186;2023-03-14T09:13:33;9.00;85.40
27567;DHT22;15006;48.584;9.186;2023-03-14T09:15:58;9.00;84.00
27567;DHT22;15006;48.584;9.186;2023-03-14T09:18:24;8.90;83.10
27567;DHT22;15006;48.584;9.186;2023-03-14T09:20:50;8.90;84.60
27567;DHT22;15006;48.584;9.186;2023-03-14T09:23:16;8.80;83.80
27567;DHT22;15006;48.584;9.186;2023-03-14T09:25:42;8.70;87.50
27567;DHT22;15006;48.584;9.186;2023-03-14T09:28:08;8.70;90.10
27567;DHT22;15006;48.584;9.186;2023-03-14T09:30:34;8.70;89.00
27567;DHT22;15006;48.584;9.186;2023-03-14T09:33:00;8.60;88.20
27567;DHT22;15006;48.584;9.186;2023-03-14T09:35:26;8.60;88.70
27567;DHT22;15006;48.584;9.186;2023-03-14T09:37:52;8.50;88.00
27567;DHT22;15006;48.584;9.186;2023-03-14T09:40:19;8.40;87.50
27567;DHT22;15006;48.584;9.186;2023-03-14T09:42:51;8.30;88.80
27567;DHT22;15006;48.584;9.186;2023-03-14T09:45:26;8.10;89.30
27567;DHT22;15006;48.584;9.186;2023-03-14T09:48:01;7.90;89.50
27567;DHT22;15006;48.584;9.186;2023-03-14T09:50:48;7.80;90.40
27567;DHT22;15006;48.584;9.186;2023-03-14T09:53:18;7.60;89.40
27567;DHT22;15006;48.584;9.186;2023-03-14T09:55:49;7.50;91.90
27567;DHT22;15006;48.584;9.186;2023-03-14T09:58:23;7.40;92.00
27567;DHT22;15006;48.584;9.186;2023-03-14T10:00:53;7.20;92.20
27567;DHT22;15006;48.584;9.186;2023-03-14T10:03:41;7.10;93.40
27567;DHT22;15006;48.584;9.186;2023-03-14T10:06:13;7.10;92.30
27567;DHT22;15006;48.584;9.186;2023-03-14T10:08:41;7.00;93.70
27567;DHT22;15006;48.584;9.186;2023-03-14T10:11:15;7.00;95.10
27567;DHT22;15006;48.584;9.186;2023-03-14T10:14:09;7.00;94.90
27567;DHT22;15006;48.584;9.186;2023-03-14T10:16:45;7.10;93.10
27567;DHT22;15006;48.584;9.186;2023-03-14T10:19:14;7.10;94.90
27567;DHT22;15006;48.584;9.186;2023-03-14T10:21:44;7.20;96.30
27567;DHT22;15006;48.584;9.186;2023-03-14T10:26:55;7.30;94.40
27567;DHT22;15006;48.584;9.186;2023-03-14T10:29:32;7.40;94.90
27567;DHT22;15006;48.584;9.186;2023-03-14T10:32:02;7.50;95.80
27567;DHT22;15006;48.584;9.186;2023-03-14T10:34:35;7.60;94.10
27567;DHT22;15006;48.584;9.186;2023-03-14T10:37:18;7.70;92.30
27567;DHT22;15006;48.584;9.186;2023-03-14T10:39:49;7.80;91.00
27567;DHT22;15006;48.584;9.186;2023-03-14T10:42:28;7.90;93.10
27567;DHT22;15006;48.584;9.186;2023-03-14T10:45:02;7.90;92.80
27567;DHT22;15006;48.584;9.186;2023-03-14T10:47:30;7.90;91.90
27567;DHT22;15006;48.584;9.186;2023-03-14T10:50:25;8.00;93.60
27567;DHT22;15006;48.584;9.186;2023-03-14T10:52:54;8.10;90.50
27567;DHT22;15006;48.584;9.186;2023-03-14T10:55:22;8.20;91.80
27567;DHT22;15006;48.584;9.186;2023-03-14T10:57:49;8.20;90.30
27567;DHT22;15006;48.584;9.186;2023-03-14T11:00:18;8.30;87.00
27567;DHT22;15006;48.584;9.186;2023-03-14T11:02:51;8.30;89.30
27567;DHT22;15006;48.584;9.186;2023-03-14T11:05:56;8.30;90.00
27567;DHT22;15006;48.584;9.186;2023-03-14T11:08:53;8.30;85.10
27567;DHT22;15006;48.584;9.186;2023-03-14T11:11:25;8.20;85.20
27567;DHT22;15006;48.584;9.186;2023-03-14T11:14:30;8.20;89.00
27567;DHT22;15006;48.584;9.186;2023-03-14T11:17:24;8.20;89.60
27567;DHT22;15006;48.584;9.186;2023-03-14T11:23:01;8.00;90.60
27567;DHT22;15006;48.584;9.186;2023-03-14T11:31:27;7.70;90.80
27567;DHT22;15006;48.584;9.186;2023-03-14T11:37:00;7.60;91.30
27567;DHT22;15006;48.584;9.186;2023-03-14T11:39:43;7.50;91.40
27567;DHT22;15006;48.584;9.186;2023-03-14T11:42:14;7.50;88.70
27567;DHT22;15006;48.584;9.186;2023-03-14T11:44:42;7.40;88.40
27567;DHT22;15006;48.584;9.186;2023-03-14T11:47:19;7.30;87.90
27567;DHT22;15006;48.584;9.186;2023-03-14T11:55:33;7.00;90.80
27567;DHT22;15006;48.584;9.186;2023-03-14T11:58:09;6.90;91.80
27567;DHT22;15006;48.584;9.186;2023-03-14T12:00:41;6.90;91.90
27567;DHT22;15006;48.584;9.186;2023-03-14T12:03:31;6.90;92.50
27567;DHT22;15006;48.584;9.186;2023-03-14T12:08:54;6.90;92.50
27567;DHT22;15006;48.584;9.186;2023-03-14T12:11:33;7.00;92.60
27567;DHT22;15006;48.584;9.186;2023-03-14T12:14:01;7.00;93.10
27567;DHT22;15006;48.584;9.186;2023-03-14T12:16:37;7.00;93.90
27567;DHT22;15006;48.584;9.186;2023-03-14T12:24:27;6.80;94.50
27567;DHT22;15006;48.584;9.186;2023-03-14T12:26:57;6.80;95.40
27567;DHT22;15006;48.584;9.186;2023-03-14T12:29:25;6.70;95.40
27567;DHT22;15006;48.584;9.186;2023-03-14T12:34:31;6.70;96.20
27567;DHT22;15006;48.584;9.186;2023-03-14T12:37:04;6.60;96.70
27567;DHT22;15006;48.584;9.186;2023-03-14T12:40:10;6.70;96.00
27567;DHT22;15006;48.584;9.186;2023-03-14T12:42:54;6.70;94.10
27567;DHT22;15006;48.584;9.186;2023-03-14T12:45:34;6.80;96.20
27567;DHT22;15006;48.584;9.186;2023-03-14T12:51:03;6.90;93.30
27567;DHT22;15006;48.584;9.186;2023-03-14T12:53:55;7.10;87.10
27567;DHT22;15006;48.584;9.186;2023-03-14T12:59:52;7.30;85.20
27567;DHT22;15006;48.584;9.186;2023-03-14T13:11:08;7.50;82.10
27567;DHT22;15006;48.584;9.186;2023-03-14T13:13:21;7.80;89.40
27567;DHT22;15006;48.584;9.186;2023-03-14T13:15:53;8.30;85.40
27567;DHT22;15006;48.584;9.186;2023-03-14T13:18:40;8.70;84.60
27567;DHT22;15006;48.584;9.186;2023-03-14T13:21:22;9.00;69.00
27567;DHT22;15006;48.584;9.186;2023-03-14T13:24:21;9.00;66.40
27567;DHT22;15006;48.584;9.186;2023-03-14T13:26:48;8.80;63.20
27567;DHT22;15006;48.584;9.186;2023-03-14T13:29:20;8.60;64.70
27567;DHT22;15006;48.584;9.186;2023-03-14T13:31:50;8.30;63.00
27567;DHT22;15006;48.584;9.186;2023-03-14T13:34:17;8.10;67.50
27567;DHT22;15006;48.584;9.186;2023-03-14T13:36:44;8.10;69.10
27567;DHT22;15006;48.584;9.186;2023-03-14T13:39:14;8.10;69.10
27567;DHT22;15006;48.584;9.186;2023-03-14T13:41:43;8.00;66.80
27567;DHT22;15006;48.584;9.186;2023-03-14T13:44:19;7.90;67.20
27567;DHT22;15006;48.584;9.186;2023-03-14T13:46:51;7.70;61.90
27567;DHT22;15006;48.584;9.186;2023-03-14T13:49:22;7.50;60.30
27567;DHT22;15006;48.584;9.186;2023-03-14T13:51:50;7.30;59.80
27567;DHT22;15006;48.584;9.186;2023-03-14T13:54:21;6.90;59.20
27567;DHT22;15006;48.584;9.186;2023-03-14T13:56:49;6.70;61.70
27567;DHT22;15006;48.584;9.186;2023-03-14T13:59:30;6.50;62.00
27567;DHT22;15006;48.584;9.186;2023-03-14T14:02:00;6.30;63.00
27567;DHT22;15006;48.584;9.186;2023-03-14T14:04:29;6.10;64.90
27567;DHT22;15006;48.584;9.186;2023-03-14T14:06:59;6.00;68.10
27567;DHT22;15006;48.584;9.186;2023-03-14T14:09:37;5.90;69.00
27567;DHT22;15006;48.584;9.186;2023-03-14T14:12:12;5.90;65.10
27567;DHT22;15006;48.584;9.186;2023-03-14T14:15:11;5.80;69.30
27567;DHT22;15006;48.584;9.186;2023-03-14T14:17:44;5.70;68.50
27567;DHT22;15006;48.584;9.186;2023-03-14T14:20:21;5.70;68.80
27567;DHT22;15006;48.584;9.186;2023-03-14T14:22:50;5.70;65.10
27567;DHT22;15006;48.584;9.186;2023-03-14T14:25:17;5.60;65.50
27567;DHT22;15006;48.584;9.186;2023-03-14T14:27:47;5.60;68.10
27567;DHT22;15006;48.584;9.186;2023-03-14T14:32:48;5.50;68.00
27567;DHT22;15006;48.584;9.186;2023-03-14T14:35:30;5.50;66.10
27567;DHT22;15006;48.584;9.186;2023-03-14T14:37:57;5.60;67.40
27567;DHT22;15006;48.584;9.186;2023-03-14T14:40:28;5.50;66.60
27567;DHT22;15006;48.584;9.186;2023-03-14T14:43:01;5.50;66.60
27567;DHT22;15006;48.584;9.186;2023-03-14T14:45:28;5.60;69.60
27567;DHT22;15006;48.584;9.186;2023-03-14T14:48:09;5.50;67.40
27567;DHT22;15006;48.584;9.186;2023-03-14T14:50:57;5.50;64.80
27567;DHT22;15006;48.584;9.186;2023-03-14T14:53:30;5.50;65.60
27567;DHT22;15006;48.584;9.186;2023-03-14T14:56:26;5.50;64.60
27567;DHT22;15006;48.584;9.186;2023-03-14T14:59:01;5.50;64.50
27567;DHT22;15006;48.584;9.186;2023-03-14T15:01:38;5.50;66.70
27567;DHT22;15006;48.584;9.186;2023-03-14T15:04:12;5.40;67.40
27567;DHT22;15006;48.584;9.186;2023-03-14T15:06:44;5.40;63.50
27567;DHT22;15006;48.584;9.186;2023-03-14T15:09:12;5.50;60.00
27567;DHT22;15006;48.584;9.186;2023-03-14T15:11:38;5.40;60.70
27567;DHT22;15006;48.584;9.186;2023-03-14T15:14:04;5.40;62.60
27567;DHT22;15006;48.584;9.186;2023-03-14T15:16:32;5.50;61.70
27567;DHT22;15006;48.584;9.186;2023-03-14T15:19:00;5.50;62.50
27567;DHT22;15006;48.584;9.186;2023-03-14T15:21:31;5.50;62.60
27567;DHT22;15006;48.584;9.186;2023-03-14T15:23:58;5.50;61.50
27567;DHT22;15006;48.584;9.186;2023-03-14T15:26:26;5.50;61.70
27567;DHT22;15006;48.584;9.186;2023-03-14T15:28:53;5.50;62.70
27567;DHT22;15006;48.584;9.186;2023-03-14T15:31:20;5.60;62.20
27567;DHT22;15006;48.584;9.186;2023-03-14T15:33:49;5.60;60.10
27567;DHT22;15006;48.584;9.186;2023-03-14T15:36:23;5.60;63.90
27567;DHT22;15006;48.584;9.186;2023-03-14T15:38:52;5.60;60.60
27567;DHT22;15006;48.584;9.186;2023-03-14T15:41:19;5.50;61.90
27567;DHT22;15006;48.584;9.186;2023-03-14T15:43:46;5.50;61.50
27567;DHT22;15006;48.584;9.186;2023-03-14T15:46:12;5.50;60.50
27567;DHT22;15006;48.584;9.186;2023-03-14T15:48:40;5.50;61.80
27567;DHT22;15006;48.584;9.186;2023-03-14T15:51:07;5.50;61.70
27567;DHT22;15006;48.584;9.186;2023-03-14T15:53:33;5.50;64.00
27567;DHT22;15006;48.584;9.186;2023-03-14T15:55:59;5.50;63.40
27567;DHT22;15006;48.584;9.186;2023-03-14T15:58:25;5.40;61.20
27567;DHT22;15006;48.584;9.186;2023-03-14T16:00:51;5.40;64.50
27567;DHT22;15006;48.584;9.186;2023-03-14T16:03:17;5.30;63.60
27567;DHT22;15006;48.584;9.186;2023-03-14T16:05:43;5.30;64.90
27567;DHT22;15006;48.584;9.186;2023-03-14T16:08:09;5.30;63.90
27567;DHT22;15006;48.584;9.186;2023-03-14T16:10:35;5.20;65.00
27567;DHT22;15006;48.584;9.186;2023-03-14T16:13:01;5.30;68.20
27567;DHT22;15006;48.584;9.186;2023-03-14T16:15:28;5.20;68.10
27567;DHT22;15006;48.584;9.186;2023-03-14T16:17:54;5.20;66.50
27567;DHT22;15006;48.584;9.186;2023-03-14T16:20:22;5.20;68.20
27567;DHT22;15006;48.584;9.186;2023-03-14T16:22:49;5.20;67.30
27567;DHT22;15006;48.584;9.186;2023-03-14T16:25:15;5.20;67.90
27567;DHT22;15006;48.584;9.186;2023-03-14T16:27:41;5.20;71.00
27567;DHT22;15006;48.584;9.186;2023-03-14T16:30:08;5.20;72.20
27567;DHT22;15006;48.584;9.186;2023-03-14T16:32:35;5.20;70.00
27567;DHT22;15006;48.584;9.186;2023-03-14T16:35:01;5.10;68.70
27567;DHT22;15006;48.584;9.186;2023-03-14T16:37:27;5.10;69.20
27567;DHT22;15006;48.584;9.186;2023-03-14T16:39:53;5.20;72.50
27567;DHT22;15006;48.584;9.186;2023-03-14T16:42:20;5.10;72.50
27567;DHT22;15006;48.584;9.186;2023-03-14T16:44:47;5.10;72.50
27567;DHT22;15006;48.584;9.186;2023-03-14T16:47:12;5.10;73.40
27567;DHT22;15006;48.584;9.186;2023-03-14T16:49:39;5.10;74.50
27567;DHT22;15006;48.584;9.186;2023-03-14T16:52:05;5.00;74.30
27567;DHT22;15006;48.584;9.186;2023-03-14T16:54:32;5.00;75.00
27567;DHT22;15006;48.584;9.186;2023-03-14T16:56:58;5.00;73.20
27567;DHT22;15006;48.584;9.186;2023-03-14T16:59:25;4.90;72.80
27567;DHT22;15006;48.584;9.186;2023-03-14T17:01:54;4.90;72.20
27567;DHT22;15006;48.584;9.186;2023-03-14T17:04:21;4.90;71.10
27567;DHT22;15006;48.584;9.186;2023-03-14T17:06:48;4.80;70.70